Time;durP1;ratioP1;P1;durP2;ratioP2;P2;SDS_P1;SDS_P2;PMS_P1;PMS_P2;Temp;Humidity;BMP_temperature;BMP_pressure;BME280_temperature;BME280_humidity;BME280_pressure;Samples;Min_cycle;Max_cycle;Signal;HPM_P1;HPM_P2
2023/05/23 00:00:57;;;;;;;17.50;8.00;;;13.70;99.90;;;;;;5115346;28;20123;-78
2023/05/23 00:03:32;;;;;;;13.02;5.53;;;13.60;99.90;;;;;;5115171;28;20043;-78
2023/05/23 00:05:58;;;;;;;17.92;7.57;;;13.60;99.90;;;;;;5115337;28;20047;-78
2023/05/23 00:08:24;;;;;;;22.42;7.03;;;13.70;99.90;;;;;;5116523;28;20043;-78
2023/05/23 00:10:50;;;;;;;15.52;7.43;;;13.70;99.90;;;;;;5113881;28;20117;-78
2023/05/23 00:13:17;;;;;;;23.08;7.05;;;13.70;99.90;;;;;;5115064;28;20055;-78
2023/05/23 00:15:47;;;;;;;14.80;7.38;;;13.70;99.90;;;;;;5115104;28;20051;-78
2023/05/23 00:18:14;;;;;;;13.85;6.57;;;13.60;99.90;;;;;;5116353;28;20036;-78
2023/05/23 00:20:44;;;;;;;19.30;6.57;;;13.60;99.90;;;;;;5114874;28;20052;-78
2023/05/23 00:23:17;;;;;;;23.13;7.47;;;13.60;99.90;;;;;;5115072;28;20053;-78
2023/05/23 00:25:47;;;;;;;19.50;7.40;;;13.60;99.90;;;;;;5114821;28;20131;-78
2023/05/23 00:28:13;;;;;;;18.85;7.55;;;13.50;99.90;;;;;;5115066;28;20067;-78
2023/05/23 00:30:39;;;;;;;13.77;6.68;;;13.50;99.90;;;;;;5115025;28;20540;-78
2023/05/23 00:33:05;;;;;;;23.05;7.40;;;13.40;99.90;;;;;;5114758;28;20051;-78
2023/05/23 00:35:30;;;;;;;17.02;6.35;;;13.40;99.90;;;;;;5116197;28;20066;-78
2023/05/23 00:37:56;;;;;;;21.35;7.35;;;13.40;99.90;;;;;;5114769;28;20047;-78
2023/05/23 00:40:22;;;;;;;16.67;7.55;;;13.40;99.90;;;;;;5114513;28;20054;-78
2023/05/23 00:42:48;;;;;;;21.45;7.90;;;13.30;99.90;;;;;;5114751;28;20092;-78
2023/05/23 00:45:14;;;;;;;25.60;8.43;;;13.20;99.90;;;;;;5114398;28;20079;-78
2023/05/23 00:47:41;;;;;;;15.90;6.63;;;13.20;99.90;;;;;;5114314;28;20071;-78
2023/05/23 00:50:10;;;;;;;22.60;6.97;;;13.20;99.90;;;;;;5115443;28;20048;-78
2023/05/23 00:52:44;;;;;;;22.70;9.53;;;13.10;99.90;;;;;;5114320;28;20055;-78
2023/05/23 00:55:10;;;;;;;26.45;7.97;;;13.10;99.90;;;;;;5113736;28;20289;-78
2023/05/23 00:57:40;;;;;;;19.20;8.93;;;13.10;99.90;;;;;;5114050;28;20084;-78
2023/05/23 01:00:13;;;;;;;22.10;7.20;;;13.10;99.90;;;;;;5114200;28;20051;-78
2023/05/23 01:02:43;;;;;;;22.23;8.20;;;13.00;99.90;;;;;;5113961;28;20052;-78
2023/05/23 01:05:10;;;;;;;27.83;9.90;;;12.90;99.90;;;;;;5113936;28;20096;-78
2023/05/23 01:07:36;;;;;;;18.23;9.23;;;13.00;99.90;;;;;;5114038;28;20079;-78
2023/05/23 01:10:05;;;;;;;24.10;9.10;;;13.00;99.90;;;;;;5113982;28;20131;-78
2023/05/23 01:12:45;;;;;;;25.98;10.07;;;13.00;99.90;;;;;;5114203;28;20043;-78
2023/05/23 01:15:14;;;;;;;23.23;10.38;;;12.90;99.90;;;;;;5115031;28;20383;-78
2023/05/23 01:18:02;;;;;;;20.52;8.30;;;12.90;99.90;;;;;;5113983;28;20546;-78
2023/05/23 01:20:33;;;;;;;23.63;7.85;;;12.80;99.90;;;;;;5113843;28;20574;-78
2023/05/23 01:23:01;;;;;;;19.52;8.45;;;12.90;99.90;;;;;;5113546;28;20039;-78
2023/05/23 01:25:46;;;;;;;21.48;8.60;;;12.90;99.90;;;;;;5113445;28;20487;-78
2023/05/23 01:28:18;;;;;;;17.55;6.22;;;12.90;99.90;;;;;;5113818;28;20036;-78
2023/05/23 01:30:47;;;;;;;21.90;7.75;;;12.80;99.90;;;;;;5148280;27;20093;-78
2023/05/23 01:33:16;;;;;;;23.35;7.80;;;12.90;99.90;;;;;;5113393;28;20399;-78
2023/05/23 01:35:42;;;;;;;18.55;6.47;;;12.80;99.90;;;;;;5113340;28;20047;-78
2023/05/23 01:38:08;;;;;;;19.58;6.55;;;12.90;99.90;;;;;;5113363;28;20536;-78
2023/05/23 01:40:35;;;;;;;23.52;8.75;;;12.90;99.90;;;;;;5113656;28;20040;-77
2023/05/23 01:43:01;;;;;;;24.45;7.55;;;12.90;99.90;;;;;;5113604;28;20039;-77
2023/05/23 01:45:28;;;;;;;26.88;8.10;;;12.80;99.90;;;;;;5113267;28;20051;-78
2023/05/23 01:47:55;;;;;;;21.60;7.43;;;12.80;99.90;;;;;;5113251;28;20081;-77
2023/05/23 01:50:23;;;;;;;17.33;5.82;;;12.80;99.90;;;;;;5113445;28;20056;-78
2023/05/23 01:52:49;;;;;;;16.98;6.32;;;12.80;99.90;;;;;;5113416;28;20044;-78
2023/05/23 01:55:21;;;;;;;15.35;5.10;;;12.80;99.90;;;;;;5113121;28;20487;-78
2023/05/23 01:57:50;;;;;;;14.40;5.20;;;12.80;99.90;;;;;;5113418;28;20052;-78
2023/05/23 02:00:16;;;;;;;19.85;7.40;;;12.80;99.90;;;;;;5113078;28;20048;-78
2023/05/23 02:02:42;;;;;;;20.63;5.15;;;12.80;99.90;;;;;;5112714;28;20054;-77
2023/05/23 02:05:10;;;;;;;16.33;5.45;;;12.80;99.90;;;;;;5112958;28;20047;-78
2023/05/23 02:07:36;;;;;;;23.58;6.32;;;12.80;99.90;;;;;;5112913;28;20059;-78
2023/05/23 02:10:03;;;;;;;17.80;5.72;;;12.80;99.90;;;;;;5113159;28;20043;-78
2023/05/23 02:12:29;;;;;;;22.17;7.10;;;12.80;99.90;;;;;;5113228;28;20047;-78
2023/05/23 02:14:55;;;;;;;16.40;5.75;;;12.80;99.90;;;;;;5112880;28;20395;-77
2023/05/23 02:17:21;;;;;;;27.45;7.72;;;12.80;99.90;;;;;;5112705;28;20040;-78
2023/05/23 02:19:47;;;;;;;25.27;6.40;;;12.80;99.90;;;;;;5129053;27;20046;-78
2023/05/23 02:22:13;;;;;;;17.55;5.95;;;12.70;99.90;;;;;;5133300;27;20054;-77
2023/05/23 02:24:39;;;;;;;15.75;5.88;;;12.80;99.90;;;;;;5134581;27;20051;-78
2023/05/23 02:27:05;;;;;;;11.70;5.97;;;12.70;99.90;;;;;;5133650;28;20047;-78
2023/05/23 02:29:31;;;;;;;24.13;7.25;;;12.70;99.90;;;;;;5133009;28;20406;-78
2023/05/23 02:31:57;;;;;;;15.15;6.05;;;12.70;99.90;;;;;;5133128;28;20474;-78
2023/05/23 02:34:25;;;;;;;17.10;5.97;;;12.70;99.90;;;;;;5135494;27;20084;-78
2023/05/23 02:36:51;;;;;;;26.40;6.22;;;12.70;99.90;;;;;;5137613;27;20118;-78
2023/05/23 02:39:17;;;;;;;21.85;6.07;;;12.70;99.90;;;;;;5137539;27;20440;-78
2023/05/23 02:41:42;;;;;;;21.10;7.43;;;12.70;99.90;;;;;;5137483;27;20039;-78
2023/05/23 02:44:08;;;;;;;16.10;6.35;;;12.70;99.90;;;;;;5137352;27;20055;-77
2023/05/23 02:46:33;;;;;;;14.60;4.95;;;12.70;99.90;;;;;;5137225;27;20126;-77
2023/05/23 02:48:59;;;;;;;14.68;5.70;;;12.70;99.90;;;;;;5137474;27;20125;-78
2023/05/23 02:51:25;;;;;;;18.23;5.25;;;12.60;99.90;;;;;;5137211;27;20039;-77
2023/05/23 02:53:54;;;;;;;18.20;5.93;;;12.60;99.90;;;;;;5137430;27;20508;-77
2023/05/23 02:56:23;;;;;;;20.35;5.05;;;12.60;99.90;;;;;;5137216;27;20039;-77
2023/05/23 02:58:48;;;;;;;22.42;6.85;;;12.60;99.90;;;;;;5138383;27;20070;-77
2023/05/23 03:01:15;;;;;;;21.65;5.45;;;12.60;99.90;;;;;;5137029;27;20075;-77
2023/05/23 03:03:40;;;;;;;18.85;5.22;;;12.60;99.90;;;;;;5136922;27;20039;-78
2023/05/23 03:06:09;;;;;;;19.52;4.63;;;12.60;99.90;;;;;;5137000;27;20061;-78
2023/05/23 03:08:35;;;;;;;18.38;4.43;;;12.60;99.90;;;;;;5137049;27;20077;-78
2023/05/23 03:11:01;;;;;;;21.00;3.97;;;12.60;99.90;;;;;;5137365;27;20057;-78
2023/05/23 03:13:27;;;;;;;17.48;4.20;;;12.60;99.90;;;;;;5136978;27;20040;-78
2023/05/23 03:15:53;;;;;;;13.85;4.28;;;12.60;99.90;;;;;;5136952;27;20486;-78
2023/05/23 03:18:18;;;;;;;12.10;3.72;;;12.60;99.90;;;;;;5137023;27;20043;-78
2023/05/23 03:20:44;;;;;;;14.75;4.15;;;12.60;99.90;;;;;;5137112;27;20110;-78
2023/05/23 03:23:10;;;;;;;18.02;5.55;;;12.50;99.90;;;;;;5137036;27;20154;-78
2023/05/23 03:25:35;;;;;;;11.05;3.88;;;12.50;99.90;;;;;;5136505;27;20775;-78
2023/05/23 03:28:01;;;;;;;17.30;5.38;;;12.50;99.90;;;;;;5136781;27;20577;-78
2023/05/23 03:30:29;;;;;;;13.23;3.97;;;12.50;99.90;;;;;;5137884;27;20122;-78
2023/05/23 03:32:55;;;;;;;11.48;3.72;;;12.50;99.90;;;;;;5136288;27;20043;-78
2023/05/23 03:35:21;;;;;;;11.77;3.78;;;12.50;99.90;;;;;;5136250;27;20045;-78
2023/05/23 03:37:49;;;;;;;9.98;3.42;;;12.50;99.90;;;;;;5136567;27;20050;-78
2023/05/23 03:40:15;;;;;;;17.10;5.03;;;12.50;99.90;;;;;;5136284;27;20043;-78
2023/05/23 03:42:40;;;;;;;14.70;4.80;;;12.40;99.90;;;;;;5136170;27;20084;-78
2023/05/23 03:45:06;;;;;;;15.50;3.85;;;12.40;99.90;;;;;;5137061;27;20047;-78
2023/05/23 03:47:32;;;;;;;15.57;4.30;;;12.40;99.90;;;;;;5136198;27;20043;-78
2023/05/23 03:49:58;;;;;;;9.65;3.55;;;12.40;99.90;;;;;;5136132;27;20058;-78
2023/05/23 03:52:23;;;;;;;13.27;4.03;;;12.40;99.90;;;;;;5135737;27;20039;-78
2023/05/23 03:54:49;;;;;;;17.92;5.15;;;12.40;99.90;;;;;;5134886;27;20084;-77
2023/05/23 03:57:15;;;;;;;15.27;4.88;;;12.40;99.90;;;;;;5135205;27;20115;-77
2023/05/23 03:59:41;;;;;;;13.00;4.00;;;12.50;99.90;;;;;;5135791;27;20545;-78
2023/05/23 04:02:06;;;;;;;18.23;4.80;;;12.40;99.90;;;;;;5136883;27;20054;-78
2023/05/23 04:04:32;;;;;;;23.67;5.95;;;12.40;99.90;;;;;;5137064;27;20055;-78
2023/05/23 04:06:58;;;;;;;18.65;4.72;;;12.40;99.90;;;;;;5135545;27;20043;-78
2023/05/23 04:09:24;;;;;;;14.60;5.47;;;12.40;99.90;;;;;;5135601;27;20047;-78
2023/05/23 04:11:50;;;;;;;16.38;5.18;;;12.30;99.90;;;;;;5135447;27;20035;-78
2023/05/23 04:14:16;;;;;;;17.38;4.75;;;12.20;99.90;;;;;;5135335;27;20066;-78
2023/05/23 04:16:43;;;;;;;13.57;5.07;;;12.20;99.90;;;;;;5135413;27;20051;-77
2023/05/23 04:19:09;;;;;;;22.88;5.50;;;12.10;99.90;;;;;;5135557;27;20498;-78
2023/05/23 04:21:35;;;;;;;14.80;5.95;;;12.10;99.90;;;;;;5135586;27;20043;-78
2023/05/23 04:24:01;;;;;;;14.98;5.13;;;12.10;99.90;;;;;;5135115;27;20043;-78
2023/05/23 04:26:27;;;;;;;11.75;5.03;;;12.10;99.90;;;;;;5135469;27;20043;-78
2023/05/23 04:28:53;;;;;;;17.08;5.13;;;12.00;99.90;;;;;;5135368;27;20359;-78
2023/05/23 04:31:21;;;;;;;16.42;4.80;;;11.90;99.90;;;;;;5135137;27;20043;-77
2023/05/23 04:33:47;;;;;;;10.43;4.22;;;12.00;99.90;;;;;;5135107;27;20039;-77
2023/05/23 04:36:13;;;;;;;12.52;4.38;;;11.90;99.90;;;;;;5135136;27;20079;-77
2023/05/23 04:38:39;;;;;;;14.82;4.75;;;11.90;99.90;;;;;;5136328;27;20085;-77
2023/05/23 04:41:08;;;;;;;17.02;4.55;;;11.90;99.90;;;;;;5134968;27;20050;-77
2023/05/23 04:43:36;;;;;;;8.93;4.03;;;11.90;99.90;;;;;;5135013;27;20047;-78
2023/05/23 04:46:03;;;;;;;14.98;4.63;;;11.90;99.90;;;;;;5135083;27;20047;-78
2023/05/23 04:48:30;;;;;;;16.58;5.72;;;11.90;99.90;;;;;;5134769;27;20508;-77
2023/05/23 04:50:56;;;;;;;21.00;5.93;;;11.80;99.90;;;;;;5134963;27;20082;-77
2023/05/23 04:53:22;;;;;;;11.98;4.13;;;11.80;99.90;;;;;;5134981;27;20062;-78
2023/05/23 04:55:48;;;;;;;17.52;4.88;;;11.90;99.90;;;;;;5134692;27;20050;-78
2023/05/23 04:58:16;;;;;;;13.95;3.80;;;11.80;99.90;;;;;;5134234;27;20039;-78
2023/05/23 05:00:42;;;;;;;12.20;3.80;;;11.80;99.90;;;;;;5134743;27;20043;-77
2023/05/23 05:03:08;;;;;;;15.50;4.25;;;11.80;99.90;;;;;;5134361;27;20085;-77
2023/05/23 05:05:34;;;;;;;12.05;4.25;;;11.80;99.90;;;;;;5134285;27;20057;-77
2023/05/23 05:08:00;;;;;;;13.15;4.78;;;11.80;99.90;;;;;;5134328;27;20074;-77
2023/05/23 05:10:25;;;;;;;12.25;3.75;;;11.70;99.90;;;;;;5134552;27;20043;-77
2023/05/23 05:12:51;;;;;;;11.93;4.05;;;11.80;99.90;;;;;;5134404;27;20043;-78
2023/05/23 05:15:18;;;;;;;10.82;3.75;;;11.70;99.90;;;;;;5134258;27;20081;-78
2023/05/23 05:17:44;;;;;;;14.85;4.05;;;11.80;99.90;;;;;;5134191;27;20047;-78
2023/05/23 05:20:10;;;;;;;12.98;3.53;;;11.70;99.90;;;;;;5135642;27;20046;-77
2023/05/23 05:22:39;;;;;;;11.02;3.10;;;11.70;99.90;;;;;;5134321;27;20043;-77
2023/05/23 05:25:06;;;;;;;12.77;3.13;;;11.70;99.90;;;;;;5133958;27;20401;-78
2023/05/23 05:27:32;;;;;;;10.43;2.72;;;11.70;99.90;;;;;;5133895;27;20078;-77
2023/05/23 05:30:03;;;;;;;13.10;3.85;;;11.70;99.90;;;;;;5133986;27;20563;-77
2023/05/23 05:32:30;;;;;;;14.63;4.25;;;11.60;99.90;;;;;;5133889;27;20124;-77
2023/05/23 05:34:58;;;;;;;12.50;4.55;;;11.70;99.90;;;;;;5133960;27;20051;-77
2023/05/23 05:37:27;;;;;;;15.18;3.58;;;11.60;99.90;;;;;;5135334;27;20039;-78
2023/05/23 05:39:53;;;;;;;18.88;4.00;;;11.60;99.90;;;;;;5133809;27;20050;-78
2023/05/23 05:42:25;;;;;;;18.00;5.43;;;11.60;99.90;;;;;;5133964;27;20047;-77
2023/05/23 05:44:54;;;;;;;14.80;4.05;;;11.60;99.90;;;;;;5133602;27;20405;-77
2023/05/23 05:47:20;;;;;;;12.15;2.97;;;11.60;99.90;;;;;;5133914;27;20031;-78
2023/05/23 05:49:46;;;;;;;12.15;2.78;;;11.60;99.90;;;;;;5133883;27;20486;-78
2023/05/23 05:52:12;;;;;;;16.08;3.30;;;11.60;99.90;;;;;;5133571;27;20080;-78
2023/05/23 05:54:37;;;;;;;13.27;3.47;;;11.60;99.90;;;;;;5133586;27;20039;-78
2023/05/23 05:57:03;;;;;;;20.00;3.35;;;11.70;99.90;;;;;;5133811;27;20039;-77
2023/05/23 05:59:29;;;;;;;17.63;3.88;;;11.70;99.90;;;;;;5133461;27;20039;-77
2023/05/23 06:01:55;;;;;;;16.80;3.05;;;11.70;99.90;;;;;;5133403;27;20059;-77
2023/05/23 06:04:23;;;;;;;14.77;3.10;;;11.80;99.90;;;;;;5133291;27;20474;-77
2023/05/23 06:06:49;;;;;;;17.58;4.95;;;11.80;99.90;;;;;;5133514;27;20078;-78
2023/05/23 06:09:15;;;;;;;18.52;3.75;;;11.80;99.90;;;;;;5132419;27;20075;-78
2023/05/23 06:11:41;;;;;;;20.17;4.72;;;11.90;99.90;;;;;;5133186;27;20039;-78
2023/05/23 06:14:07;;;;;;;19.45;4.65;;;12.00;99.90;;;;;;5133201;27;20130;-78
2023/05/23 06:16:32;;;;;;;18.55;3.95;;;12.00;99.90;;;;;;5133090;27;20039;-78
2023/05/23 06:19:01;;;;;;;18.67;3.90;;;12.10;99.90;;;;;;5133008;27;20043;-78
2023/05/23 06:21:26;;;;;;;24.95;4.13;;;12.10;99.90;;;;;;5133006;27;20130;-78
2023/05/23 06:23:52;;;;;;;14.43;3.65;;;12.10;99.90;;;;;;5133087;27;20126;-78
2023/05/23 06:26:18;;;;;;;19.35;4.03;;;12.10;99.90;;;;;;5133279;27;20061;-79
2023/05/23 06:28:43;;;;;;;19.30;4.28;;;12.10;99.90;;;;;;5133491;27;20035;-78
2023/05/23 06:31:09;;;;;;;9.30;3.42;;;12.10;99.90;;;;;;5132783;28;20379;-78
2023/05/23 06:33:37;;;;;;;15.60;4.07;;;12.10;99.90;;;;;;5132957;28;20078;-79
2023/05/23 06:36:03;;;;;;;13.65;3.20;;;12.10;99.90;;;;;;5133255;28;20039;-78
2023/05/23 06:38:33;;;;;;;16.40;3.30;;;12.10;99.90;;;;;;5132973;28;20039;-78
2023/05/23 06:40:59;;;;;;;12.43;3.10;;;12.20;99.90;;;;;;5133202;28;20062;-78
2023/05/23 06:43:25;;;;;;;15.05;3.38;;;12.20;99.90;;;;;;5133212;28;20035;-79
2023/05/23 06:45:50;;;;;;;37.78;5.28;;;12.30;99.90;;;;;;5132772;28;20051;-79
2023/05/23 06:48:16;;;;;;;13.23;2.75;;;12.40;99.90;;;;;;5132803;28;20054;-78
2023/05/23 06:50:42;;;;;;;16.65;2.45;;;12.30;99.90;;;;;;5133076;28;20434;-79
2023/05/23 06:53:07;;;;;;;16.25;3.22;;;12.40;99.90;;;;;;5133050;28;20045;-78
2023/05/23 06:55:33;;;;;;;15.85;2.63;;;12.40;99.90;;;;;;5133033;28;20070;-78
2023/05/23 06:57:59;;;;;;;12.93;3.28;;;12.30;99.90;;;;;;5132704;28;20043;-78
2023/05/23 07:00:25;;;;;;;21.20;4.20;;;12.40;99.90;;;;;;5132657;28;20475;-79
2023/05/23 07:02:51;;;;;;;20.63;3.90;;;12.30;99.90;;;;;;5125421;27;20047;-77
2023/05/23 07:05:17;;;;;;;19.88;5.03;;;12.40;99.90;;;;;;5150006;27;20506;-76
2023/05/23 07:07:43;;;;;;;17.15;3.00;;;12.30;99.90;;;;;;5111960;28;20073;-76
2023/05/23 07:10:09;;;;;;;19.02;4.03;;;12.30;99.90;;;;;;5111862;28;20035;-76
2023/05/23 07:12:35;;;;;;;13.25;2.25;;;12.30;99.90;;;;;;5111852;28;20044;-77
2023/05/23 07:15:01;;;;;;;14.60;3.38;;;12.40;99.90;;;;;;5111871;28;20044;-75
2023/05/23 07:17:28;;;;;;;14.63;3.28;;;12.50;99.90;;;;;;5113121;28;20044;-80
2023/05/23 07:19:55;;;;;;;13.48;3.15;;;12.50;99.90;;;;;;5113068;28;20035;-79
2023/05/23 07:22:20;;;;;;;12.35;2.95;;;12.50;99.90;;;;;;5117310;27;20050;-78
2023/05/23 07:24:46;;;;;;;10.75;4.13;;;12.50;99.90;;;;;;5117068;28;20394;-77
2023/05/23 07:27:12;;;;;;;14.55;3.45;;;12.50;99.90;;;;;;5116881;28;20118;-77
2023/05/23 07:29:37;;;;;;;16.10;2.78;;;12.60;99.90;;;;;;5115436;28;20184;-77
2023/05/23 07:32:04;;;;;;;15.35;2.45;;;12.60;99.90;;;;;;5115466;28;20039;-77
2023/05/23 07:34:32;;;;;;;22.17;4.70;;;12.70;99.90;;;;;;5115673;28;20058;-77
2023/05/23 07:36:58;;;;;;;18.23;4.65;;;12.70;99.90;;;;;;5116687;28;20040;-77
2023/05/23 07:39:24;;;;;;;16.25;4.03;;;12.70;99.90;;;;;;5115559;28;20043;-77
2023/05/23 07:41:50;;;;;;;15.98;3.83;;;12.80;99.90;;;;;;5115282;28;20465;-78
2023/05/23 07:44:18;;;;;;;9.18;2.35;;;12.80;99.90;;;;;;5115077;28;20597;-78
2023/05/23 07:46:43;;;;;;;10.73;2.80;;;12.80;99.90;;;;;;5115431;28;20164;-77
2023/05/23 07:49:09;;;;;;;19.23;3.90;;;12.80;99.90;;;;;;5115079;28;20130;-77
2023/05/23 07:51:35;;;;;;;13.25;2.63;;;13.00;99.90;;;;;;5116333;28;20043;-77
2023/05/23 07:54:00;;;;;;;17.05;3.92;;;13.10;99.90;;;;;;5116598;28;20039;-77
2023/05/23 07:56:26;;;;;;;12.82;3.22;;;13.30;99.90;;;;;;5115398;28;20055;-78
2023/05/23 07:58:52;;;;;;;15.52;2.78;;;13.50;99.90;;;;;;5116080;28;20083;-77
2023/05/23 08:01:18;;;;;;;19.58;3.83;;;13.60;99.90;;;;;;5114722;28;20130;-77
2023/05/23 08:03:50;;;;;;;17.33;3.83;;;13.60;99.90;;;;;;5115079;28;20047;-77
2023/05/23 08:06:16;;;;;;;13.15;3.35;;;13.60;99.90;;;;;;5114923;28;20131;-77
2023/05/23 08:08:42;;;;;;;19.88;4.53;;;13.50;99.90;;;;;;5115050;28;20126;-78
2023/05/23 08:11:08;;;;;;;17.90;3.65;;;13.70;99.90;;;;;;5115946;28;20052;-78
2023/05/23 08:13:34;;;;;;;12.68;2.97;;;13.60;99.90;;;;;;5114816;28;20047;-78
2023/05/23 08:16:00;;;;;;;12.95;2.20;;;13.80;99.90;;;;;;5132556;27;20103;-77
2023/05/23 08:18:25;;;;;;;14.55;3.15;;;13.70;99.90;;;;;;5135344;27;20554;-78
2023/05/23 08:20:52;;;;;;;13.32;3.13;;;13.80;99.90;;;;;;5136599;27;20059;-78
2023/05/23 08:23:18;;;;;;;19.60;3.40;;;13.90;99.90;;;;;;5135363;27;20050;-78
2023/05/23 08:25:44;;;;;;;11.55;3.40;;;14.00;99.90;;;;;;5134817;27;20055;-78
2023/05/23 08:28:12;;;;;;;13.85;2.65;;;14.10;99.90;;;;;;5135151;27;20071;-77
2023/05/23 08:30:38;;;;;;;23.45;4.00;;;14.10;99.90;;;;;;5134717;27;20039;-77
2023/05/23 08:33:03;;;;;;;17.73;3.03;;;14.00;99.90;;;;;;5134190;27;20111;-77
2023/05/23 08:35:33;;;;;;;13.82;3.45;;;13.90;99.90;;;;;;5134789;27;20054;-77
2023/05/23 08:38:00;;;;;;;23.17;5.85;;;14.00;99.90;;;;;;5135061;27;20036;-77
2023/05/23 08:40:28;;;;;;;28.77;4.05;;;14.10;99.90;;;;;;5134604;27;20051;-77
2023/05/23 08:42:53;;;;;;;10.68;2.65;;;14.10;99.90;;;;;;5134594;27;20486;-77
2023/05/23 08:45:20;;;;;;;18.55;4.20;;;14.10;99.90;;;;;;5134572;27;20035;-77
2023/05/23 08:47:46;;;;;;;14.07;3.05;;;14.20;99.90;;;;;;5134436;27;20053;-77
2023/05/23 08:50:16;;;;;;;15.00;4.10;;;14.20;99.90;;;;;;5134774;27;20483;-78
2023/05/23 08:52:55;;;;;;;14.80;2.63;;;14.40;99.90;;;;;;5134709;27;20039;-78
2023/05/23 08:55:27;;;;;;;16.58;3.47;;;14.40;99.90;;;;;;5134660;27;20047;-77
2023/05/23 08:58:02;;;;;;;14.45;2.65;;;14.50;99.90;;;;;;5134632;27;20043;-77
2023/05/23 09:00:28;;;;;;;14.02;3.50;;;14.40;99.90;;;;;;5134253;27;20125;-76
2023/05/23 09:02:57;;;;;;;17.48;3.45;;;14.50;99.90;;;;;;5134041;27;20192;-76
2023/05/23 09:05:32;;;;;;;35.75;5.70;;;14.50;99.90;;;;;;5133829;27;20045;-78
2023/05/23 09:07:57;;;;;;;20.35;3.65;;;14.40;99.90;;;;;;5134069;27;20081;-77
2023/05/23 09:10:23;;;;;;;26.77;4.50;;;14.40;99.90;;;;;;5134099;27;20082;-77
2023/05/23 09:12:52;;;;;;;17.05;3.63;;;14.40;99.90;;;;;;5134086;27;20500;-78
2023/05/23 09:15:18;;;;;;;16.33;4.15;;;14.50;99.90;;;;;;5133985;27;20139;-77
2023/05/23 09:17:44;;;;;;;14.23;3.25;;;14.50;99.90;;;;;;5133982;27;20088;-78
2023/05/23 09:20:13;;;;;;;23.80;3.72;;;14.60;99.90;;;;;;5134282;27;20112;-77
2023/05/23 09:22:46;;;;;;;21.75;3.47;;;14.60;99.90;;;;;;5134285;27;20062;-77
2023/05/23 09:25:15;;;;;;;17.08;3.83;;;14.50;99.90;;;;;;5133802;27;20505;-77
2023/05/23 09:27:41;;;;;;;19.73;3.95;;;14.60;99.90;;;;;;5134083;27;20043;-76
2023/05/23 09:30:11;;;;;;;16.50;2.70;;;14.60;99.90;;;;;;5133709;27;20419;-77
2023/05/23 09:32:37;;;;;;;14.63;2.88;;;14.70;99.90;;;;;;5133832;27;20079;-77
2023/05/23 09:35:05;;;;;;;13.60;2.92;;;14.60;99.90;;;;;;5133628;27;20128;-77
2023/05/23 09:37:36;;;;;;;12.35;2.88;;;14.70;99.90;;;;;;5133543;27;20075;-78
2023/05/23 09:40:11;;;;;;;10.30;2.55;;;14.70;99.90;;;;;;5133753;27;20055;-77
2023/05/23 09:42:44;;;;;;;14.98;3.78;;;14.90;99.90;;;;;;5134698;27;20039;-77
2023/05/23 09:45:10;;;;;;;37.22;8.23;;;15.00;99.90;;;;;;5133048;27;20035;-75
2023/05/23 09:47:36;;;;;;;15.48;3.25;;;14.90;99.90;;;;;;5133427;27;20086;-76
2023/05/23 09:50:04;;;;;;;13.75;3.13;;;14.80;99.90;;;;;;5133390;27;20075;-77
2023/05/23 09:52:38;;;;;;;13.07;3.35;;;14.90;99.90;;;;;;5133305;27;20047;-76
2023/05/23 09:55:05;;;;;;;13.60;2.40;;;15.00;99.90;;;;;;5133251;27;20047;-76
2023/05/23 09:57:38;;;;;;;17.70;3.28;;;15.20;99.90;;;;;;5133460;27;20087;-76
2023/05/23 10:00:05;;;;;;;13.27;3.30;;;15.40;99.90;;;;;;5133218;27;20057;-77
2023/05/23 10:03:02;;;;;;;40.67;6.22;;;15.40;99.90;;;;;;5133189;27;20107;-77
2023/05/23 10:05:47;;;;;;;20.17;3.75;;;15.40;99.90;;;;;;5134496;27;20058;-78
2023/05/23 10:08:37;;;;;;;14.23;3.55;;;15.10;99.90;;;;;;5133152;27;20100;-77
2023/05/23 10:11:32;;;;;;;17.98;3.47;;;15.00;99.90;;;;;;5122119;27;20059;-77
2023/05/23 10:14:00;;;;;;;15.43;3.00;;;14.80;99.90;;;;;;5133273;27;20050;-77
2023/05/23 10:16:34;;;;;;;158.75;26.20;;;15.00;99.90;;;;;;5133416;27;20086;-78
2023/05/23 10:19:23;;;;;;;18.10;2.55;;;15.20;99.90;;;;;;5133440;27;20051;-78
2023/05/23 10:21:58;;;;;;;19.80;4.18;;;15.30;99.90;;;;;;5133492;27;20046;-78
2023/05/23 10:24:25;;;;;;;14.65;3.20;;;15.50;99.90;;;;;;5134574;27;20139;-77
2023/05/23 10:26:52;;;;;;;14.02;3.60;;;15.40;99.90;;;;;;5132994;27;20057;-77
2023/05/23 10:29:19;;;;;;;13.25;3.30;;;15.30;99.90;;;;;;5133268;27;20486;-77
2023/05/23 10:31:45;;;;;;;16.05;3.58;;;15.20;99.90;;;;;;5134321;27;20043;-77
2023/05/23 10:34:29;;;;;;;16.40;3.40;;;15.10;99.90;;;;;;5133061;28;20078;-77
2023/05/23 10:37:08;;;;;;;20.10;3.05;;;14.90;99.90;;;;;;5132940;28;20445;-78
2023/05/23 10:39:56;;;;;;;14.55;2.92;;;14.90;99.90;;;;;;5133275;28;20093;-77
2023/05/23 10:42:27;;;;;;;17.23;2.70;;;14.80;99.90;;;;;;5133352;28;20126;-78
2023/05/23 10:45:12;;;;;;;13.07;3.10;;;14.80;99.90;;;;;;5133026;28;20395;-77
2023/05/23 10:47:38;;;;;;;6.93;2.05;;;14.70;99.90;;;;;;5133231;28;20107;-77
2023/05/23 10:50:05;;;;;;;13.82;2.50;;;14.70;99.90;;;;;;5133209;28;20065;-77
2023/05/23 10:52:39;;;;;;;12.50;3.53;;;14.90;99.90;;;;;;5133103;28;20044;-78
2023/05/23 10:55:14;;;;;;;15.77;4.05;;;14.90;99.90;;;;;;5134511;27;20047;-78
2023/05/23 10:57:45;;;;;;;21.70;3.33;;;15.20;99.90;;;;;;5136516;27;20051;-77
2023/05/23 11:00:15;;;;;;;14.48;3.17;;;15.30;99.90;;;;;;5136947;27;20035;-77
2023/05/23 11:03:03;;;;;;;14.93;3.50;;;15.10;99.90;;;;;;5136549;27;20104;-78
2023/05/23 11:05:30;;;;;;;14.20;3.80;;;15.10;99.90;;;;;;5136827;27;20043;-78
2023/05/23 11:08:13;;;;;;;11.10;2.45;;;15.10;99.90;;;;;;5138072;27;20482;-78
2023/05/23 11:10:53;;;;;;;13.70;2.50;;;15.30;99.90;;;;;;5136811;27;20054;-79
2023/05/23 11:13:20;;;;;;;15.23;3.08;;;15.50;99.90;;;;;;5136699;27;20051;-78
2023/05/23 11:15:47;;;;;;;13.70;3.20;;;15.60;99.90;;;;;;5136700;27;20532;-79
2023/05/23 11:18:23;;;;;;;20.40;4.00;;;15.60;99.90;;;;;;5136768;27;20054;-78
2023/05/23 11:20:52;;;;;;;20.13;3.15;;;15.60;99.90;;;;;;5136849;27;20069;-78
2023/05/23 11:23:18;;;;;;;12.93;3.38;;;15.50;99.90;;;;;;5136750;27;20043;-79
2023/05/23 11:25:47;;;;;;;30.15;4.47;;;15.60;99.90;;;;;;5136207;27;20389;-78
2023/05/23 11:28:13;;;;;;;17.15;3.78;;;15.50;99.90;;;;;;5136362;27;20049;-78
2023/05/23 11:30:39;;;;;;;17.23;3.42;;;15.60;99.90;;;;;;5136776;27;20043;-78
2023/05/23 11:33:13;;;;;;;10.93;2.67;;;15.60;99.90;;;;;;5136278;27;20047;-78
2023/05/23 11:35:47;;;;;;;12.93;2.90;;;15.50;99.90;;;;;;5137741;27;20042;-78
2023/05/23 11:38:16;;;;;;;19.25;2.90;;;15.60;99.90;;;;;;5136585;27;20093;-78
2023/05/23 11:40:44;;;;;;;52.55;9.05;;;15.70;99.90;;;;;;5136064;27;20376;-78
2023/05/23 11:43:12;;;;;;;13.88;3.50;;;15.70;99.90;;;;;;5135963;27;20046;-77
2023/05/23 11:45:39;;;;;;;19.15;2.65;;;15.70;99.90;;;;;;5136053;27;20043;-78
2023/05/23 11:48:13;;;;;;;13.50;3.60;;;15.80;99.90;;;;;;5136218;27;20062;-78
2023/05/23 11:50:43;;;;;;;11.30;3.05;;;15.80;99.90;;;;;;5136168;27;20050;-78
2023/05/23 11:53:09;;;;;;;16.17;3.30;;;16.00;99.90;;;;;;5135851;27;20070;-77
2023/05/23 11:55:34;;;;;;;12.90;3.25;;;16.00;99.90;;;;;;5135896;27;20172;-79
2023/05/23 11:58:00;;;;;;;11.55;2.15;;;15.90;99.90;;;;;;5135940;27;20092;-79
2023/05/23 12:00:26;;;;;;;12.32;2.97;;;16.00;99.90;;;;;;5135932;27;20047;-78
2023/05/23 12:02:51;;;;;;;13.68;2.55;;;16.00;99.90;;;;;;5135344;27;20502;-79
2023/05/23 12:05:17;;;;;;;13.63;2.22;;;16.00;99.90;;;;;;5135377;27;20059;-79
2023/05/23 12:07:45;;;;;;;10.63;2.40;;;16.10;99.90;;;;;;5134407;27;20141;-78
2023/05/23 12:10:13;;;;;;;16.85;2.70;;;16.10;99.90;;;;;;5135986;27;20087;-79
2023/05/23 12:12:41;;;;;;;19.70;3.78;;;16.00;99.90;;;;;;5135425;27;20391;-79
2023/05/23 12:15:08;;;;;;;12.95;2.85;;;16.00;99.90;;;;;;5135766;27;20118;-79
2023/05/23 12:17:36;;;;;;;16.45;2.92;;;16.10;99.90;;;;;;5135444;27;20091;-79
2023/05/23 12:20:02;;;;;;;19.55;2.70;;;16.20;99.90;;;;;;5135389;27;20051;-78
2023/05/23 12:22:28;;;;;;;14.48;3.70;;;16.00;99.90;;;;;;5135576;27;20047;-79
2023/05/23 12:24:58;;;;;;;12.65;2.95;;;16.10;99.90;;;;;;5135120;27;20047;-79
2023/05/23 12:27:34;;;;;;;17.00;3.25;;;15.90;99.90;;;;;;5135230;27;20035;-78
2023/05/23 12:30:08;;;;;;;17.98;3.65;;;15.90;99.90;;;;;;5135596;27;20051;-79
2023/05/23 12:32:41;;;;;;;15.55;2.85;;;16.00;99.90;;;;;;5135154;27;20067;-78
2023/05/23 12:35:08;;;;;;;20.52;3.25;;;16.20;99.90;;;;;;5135256;27;20047;-78
2023/05/23 12:37:41;;;;;;;10.82;3.03;;;16.10;99.90;;;;;;5135277;27;20136;-79
2023/05/23 12:40:16;;;;;;;12.77;1.85;;;16.00;99.90;;;;;;5134989;27;20057;-78